createdAt,value
2023-04-07T00:02:01.161Z,6.85
2023-04-07T00:04:32.579Z,2.47
2023-04-07T00:07:02.726Z,4.47
2023-04-07T00:09:33.515Z,5.07
2023-04-07T00:12:05.687Z,4.28
2023-04-07T00:14:37.092Z,7.20
2023-04-07T00:17:08.564Z,2.65
2023-04-07T00:19:39.127Z,4.30
2023-04-07T00:22:09.349Z,5.50
2023-04-07T00:24:40.518Z,6.13
2023-04-07T00:27:11.307Z,6.60
2023-04-07T00:29:41.386Z,2.97
2023-04-07T00:32:12.773Z,6.97
2023-04-07T00:34:42.963Z,5.70
2023-04-07T00:37:13.027Z,5.30
2023-04-07T00:39:43.848Z,5.97
2023-04-07T00:42:14.523Z,5.57
2023-04-07T00:44:44.867Z,4.18
2023-04-07T00:47:15.605Z,4.57
2023-04-07T00:49:46.931Z,4.55
2023-04-07T00:52:19.360Z,4.80
2023-04-07T00:54:49.839Z,5.30
2023-04-07T00:57:21.633Z,8.65
2023-04-07T00:59:53.287Z,5.47
2023-04-07T01:02:49.507Z,7.97
2023-04-07T01:05:41.381Z,9.48
2023-04-07T01:08:52.490Z,5.60
2023-04-07T01:11:32.630Z,7.70
2023-04-07T01:14:03.284Z,3.58
2023-04-07T01:16:53.712Z,13.82
2023-04-07T01:19:39.792Z,31.27
2023-04-07T01:22:22.693Z,21.98
2023-04-07T01:25:17.755Z,17.77
2023-04-07T01:28:21.891Z,59.97
2023-04-07T01:30:55.870Z,19.98
2023-04-07T01:33:31.794Z,53.72
2023-04-07T01:36:11.745Z,29.25
2023-04-07T01:38:42.813Z,19.42
2023-04-07T01:41:14.348Z,36.97
2023-04-07T01:43:47.489Z,14.63
2023-04-07T01:46:20.407Z,20.65
2023-04-07T01:48:55.039Z,43.20
2023-04-07T01:51:28.875Z,15.77
2023-04-07T01:54:02.446Z,18.13
2023-04-07T01:56:33.550Z,20.88
2023-04-07T01:59:08.237Z,18.08
2023-04-07T02:01:41.727Z,26.27
2023-04-07T02:04:25.188Z,26.98
2023-04-07T02:07:06.517Z,26.92
2023-04-07T02:09:46.074Z,34.80
2023-04-07T02:12:18.887Z,38.85
2023-04-07T02:15:03.061Z,29.77
2023-04-07T02:17:37.862Z,22.77
2023-04-07T02:20:13.768Z,41.13
2023-04-07T02:22:47.065Z,39.78
2023-04-07T02:25:28.009Z,27.15
2023-04-07T02:28:00.275Z,34.33
2023-04-07T02:30:36.172Z,12.27
2023-04-07T02:33:09.476Z,20.35
2023-04-07T02:35:39.885Z,23.10
2023-04-07T02:38:10.397Z,46.75
2023-04-07T02:40:42.454Z,27.70
2023-04-07T02:43:13.863Z,24.90
2023-04-07T02:45:45.392Z,30.35
2023-04-07T02:48:18.602Z,32.95
2023-04-07T02:50:49.545Z,38.00
2023-04-07T03:13:51.872Z,28.35
2023-04-07T03:16:23.555Z,41.85
2023-04-07T03:19:12.116Z,36.75
2023-04-07T03:21:46.370Z,31.40
2023-04-07T03:24:16.926Z,56.42
2023-04-07T03:26:50.338Z,28.52
2023-04-07T03:29:32.511Z,41.08
2023-04-07T03:32:03.458Z,26.63
2023-04-07T03:34:34.330Z,28.63
2023-04-07T03:37:05.942Z,17.40
2023-04-07T03:39:39.434Z,32.47
2023-04-07T03:42:25.173Z,25.63
2023-04-07T03:45:01.807Z,19.30
2023-04-07T03:47:33.904Z,19.23
2023-04-07T03:50:07.421Z,15.48
2023-04-07T03:52:47.160Z,16.40
2023-04-07T03:55:26.914Z,30.77
2023-04-07T03:58:03.411Z,34.63
2023-04-07T04:00:37.108Z,27.38
2023-04-07T04:03:13.350Z,28.55
2023-04-07T04:06:02.355Z,27.10
2023-04-07T04:08:34.941Z,31.05
2023-04-07T04:11:06.457Z,23.52
2023-04-07T04:14:15.229Z,19.60
2023-04-07T04:16:53.015Z,17.50
2023-04-07T04:19:32.153Z,13.38
2023-04-07T04:22:07.392Z,17.13
2023-04-07T04:24:45.394Z,13.75
2023-04-07T04:27:15.624Z,24.70
2023-04-07T04:29:49.403Z,17.40
2023-04-07T04:32:24.554Z,19.33
2023-04-07T04:34:55.192Z,11.50
2023-04-07T04:37:25.734Z,11.95
2023-04-07T04:39:57.006Z,6.18
2023-04-07T04:42:29.363Z,10.35
2023-04-07T04:45:00.149Z,10.40
2023-04-07T04:47:32.073Z,15.02
2023-04-07T04:50:05.007Z,22.15
2023-04-07T04:52:37.620Z,18.52
2023-04-07T04:55:13.947Z,15.27
2023-04-07T04:57:46.645Z,10.52
2023-04-07T05:00:23.639Z,11.32
2023-04-07T05:03:01.221Z,14.38
2023-04-07T05:05:34.080Z,11.27
2023-04-07T05:08:05.051Z,9.82
2023-04-07T05:10:41.876Z,12.52
2023-04-07T05:13:16.474Z,10.82
2023-04-07T05:15:47.931Z,23.92
2023-04-07T05:18:18.999Z,17.65
2023-04-07T05:20:51.456Z,21.63
2023-04-07T05:23:22.625Z,23.92
2023-04-07T05:25:54.442Z,15.15
2023-04-07T05:28:24.888Z,11.75
2023-04-07T05:30:58.356Z,7.55
2023-04-07T05:33:33.758Z,8.10
2023-04-07T05:36:06.760Z,10.43
2023-04-07T05:38:37.823Z,10.98
2023-04-07T05:41:14.898Z,6.22
2023-04-07T05:43:45.397Z,5.40
2023-04-07T05:46:17.884Z,10.45
2023-04-07T05:48:57.998Z,6.32
2023-04-07T05:51:30.969Z,6.88
2023-04-07T05:54:09.169Z,3.50
2023-04-07T05:56:39.501Z,2.88
2023-04-07T05:59:10.826Z,3.00
2023-04-07T06:01:44.261Z,2.95
2023-04-07T06:04:16.100Z,6.22
2023-04-07T06:06:47.554Z,9.77
2023-04-07T06:09:17.862Z,9.40
2023-04-07T06:11:49.244Z,14.60
2023-04-07T06:14:20.206Z,6.25
2023-04-07T06:16:50.503Z,4.88
2023-04-07T06:19:22.010Z,2.72
2023-04-07T06:21:56.241Z,5.90
2023-04-07T06:24:38.431Z,3.17
2023-04-07T06:27:11.361Z,2.20
2023-04-07T06:29:42.621Z,2.58
2023-04-07T06:32:15.226Z,1.98
2023-04-07T06:34:46.043Z,1.88
2023-04-07T06:37:19.173Z,3.30
2023-04-07T06:39:49.792Z,5.05
2023-04-07T06:42:20.345Z,3.05
2023-04-07T06:45:03.199Z,1.98
2023-04-07T06:47:35.262Z,4.90
2023-04-07T06:50:05.975Z,2.03
2023-04-07T06:52:37.667Z,5.07
2023-04-07T06:55:09.297Z,2.72
2023-04-07T06:57:40.216Z,1.73
2023-04-07T07:00:13.103Z,3.53
2023-04-07T07:02:43.426Z,3.60
2023-04-07T07:05:13.766Z,2.42
2023-04-07T07:07:45.250Z,1.85
2023-04-07T07:10:16.309Z,1.70
2023-04-07T07:12:46.845Z,1.38
2023-04-07T07:15:18.762Z,3.75
2023-04-07T07:17:49.942Z,1.65
2023-04-07T07:20:20.830Z,3.95
2023-04-07T07:22:52.272Z,3.60
2023-04-07T07:25:23.358Z,2.38
2023-04-07T07:27:55.568Z,2.97
2023-04-07T07:30:26.622Z,1.77
2023-04-07T07:32:57.712Z,3.50
2023-04-07T07:35:28.730Z,2.22
2023-04-07T07:37:59.744Z,2.30
2023-04-07T07:40:31.598Z,4.57
2023-04-07T07:43:03.132Z,3.38
2023-04-07T07:45:33.468Z,3.53
2023-04-07T07:48:03.559Z,3.45
2023-04-07T07:50:34.984Z,2.83
2023-04-07T07:53:05.720Z,1.27
2023-04-07T07:55:36.250Z,2.25
2023-04-07T07:58:09.982Z,1.50
2023-04-07T08:00:41.326Z,1.90
2023-04-07T08:03:12.899Z,2.60
2023-04-07T08:05:45.598Z,3.10
2023-04-07T08:08:17.205Z,2.17
2023-04-07T08:10:47.382Z,1.65
2023-04-07T08:13:17.551Z,3.25
2023-04-07T08:15:48.957Z,2.40
2023-04-07T08:18:19.204Z,2.50
2023-04-07T08:20:50.010Z,3.97
2023-04-07T08:23:21.441Z,2.35
2023-04-07T08:25:53.372Z,1.75
2023-04-07T08:28:28.724Z,1.67
2023-04-07T08:31:00.147Z,3.08
2023-04-07T08:33:31.349Z,1.25
2023-04-07T08:36:02.423Z,2.55
2023-04-07T08:38:33.595Z,2.50
2023-04-07T08:41:15.665Z,5.30
2023-04-07T08:43:49.615Z,3.03
2023-04-07T08:46:28.529Z,3.97
2023-04-07T08:48:59.661Z,0.80
2023-04-07T08:51:30.773Z,2.22
2023-04-07T08:54:13.785Z,2.30
2023-04-07T08:56:51.198Z,1.80
2023-04-07T08:59:28.266Z,2.13
2023-04-07T09:01:59.693Z,1.83
2023-04-07T09:04:31.390Z,3.88
2023-04-07T09:07:03.482Z,4.30
2023-04-07T09:09:33.858Z,1.67
2023-04-07T09:12:04.834Z,1.48
2023-04-07T09:14:35.618Z,1.80
2023-04-07T09:17:05.899Z,1.55
2023-04-07T09:19:36.176Z,0.85
2023-04-07T09:22:07.077Z,1.45
2023-04-07T09:24:37.908Z,2.22
2023-04-07T09:27:35.733Z,2.53
2023-04-07T09:30:19.535Z,1.75
2023-04-07T09:32:51.034Z,2.22
2023-04-07T09:35:23.272Z,5.95
2023-04-07T09:38:13.706Z,0.60
2023-04-07T09:40:44.644Z,1.67
2023-04-07T09:43:21.431Z,2.60
2023-04-07T09:45:52.902Z,1.95
2023-04-07T09:48:24.368Z,3.72
2023-04-07T09:51:16.653Z,2.85
2023-04-07T09:53:53.882Z,1.45
2023-04-07T09:56:26.899Z,2.38
2023-04-07T09:58:58.307Z,2.40
2023-04-07T10:01:30.355Z,1.17
2023-04-07T10:04:02.214Z,1.80
2023-04-07T10:06:33.658Z,2.25
2023-04-07T10:09:04.339Z,2.28
2023-04-07T10:11:35.402Z,0.98
2023-04-07T10:14:38.096Z,1.55
2023-04-07T10:17:10.971Z,2.53
2023-04-07T10:19:41.434Z,2.53
2023-04-07T10:22:12.111Z,2.75
2023-04-07T10:24:52.815Z,1.05
2023-04-07T10:27:33.455Z,0.95
2023-04-07T10:30:09.828Z,2.67
2023-04-07T10:32:55.514Z,1.15
2023-04-07T10:35:27.606Z,1.48
2023-04-07T10:38:13.187Z,2.58
2023-04-07T10:40:47.222Z,2.55
2023-04-07T10:43:46.649Z,2.40
2023-04-07T10:46:24.339Z,1.73
2023-04-07T10:49:11.756Z,2.17
2023-04-07T10:51:43.681Z,0.95
2023-04-07T10:54:26.316Z,2.08
2023-04-07T10:57:04.668Z,1.15
2023-04-07T10:59:37.750Z,1.15
2023-04-07T11:02:18.825Z,1.88
2023-04-07T11:04:50.273Z,2.17
2023-04-07T11:07:22.151Z,1.60
2023-04-07T11:09:52.825Z,1.38
2023-04-07T11:12:27.230Z,1.77
2023-04-07T11:15:01.628Z,1.23
2023-04-07T11:17:32.699Z,1.33
2023-04-07T11:20:03.687Z,3.70
2023-04-07T11:22:35.663Z,1.63
2023-04-07T11:25:22.734Z,3.03
2023-04-07T11:27:55.694Z,5.03
2023-04-07T11:30:28.825Z,2.95
2023-04-07T11:32:59.436Z,5.03
2023-04-07T11:35:29.737Z,5.28
2023-04-07T11:38:03.627Z,1.58
2023-04-07T11:40:36.898Z,2.70
2023-04-07T11:43:31.450Z,3.17
2023-04-07T11:46:08.165Z,2.97
2023-04-07T11:48:40.544Z,2.40
2023-04-07T11:51:29.426Z,2.85
2023-04-07T11:53:59.754Z,2.95
2023-04-07T11:56:33.046Z,2.80
2023-04-07T11:59:04.928Z,2.78
2023-04-07T12:01:45.220Z,1.05
2023-04-07T12:04:18.242Z,0.82
2023-04-07T12:06:50.940Z,1.98
2023-04-07T12:09:37.536Z,1.77
2023-04-07T12:12:09.352Z,2.95
2023-04-07T12:14:39.725Z,0.75
2023-04-07T12:17:21.635Z,2.63
2023-04-07T12:19:52.113Z,1.95
2023-04-07T12:22:23.443Z,1.42
2023-04-07T12:24:53.753Z,2.45
2023-04-07T12:27:35.855Z,3.10
2023-04-07T12:30:13.438Z,2.05
2023-04-07T12:32:44.088Z,4.90
2023-04-07T12:35:15.285Z,1.98
2023-04-07T12:37:48.397Z,1.80
2023-04-07T12:40:20.497Z,2.47
2023-04-07T12:42:51.217Z,2.88
2023-04-07T12:45:21.951Z,1.38
2023-04-07T12:47:52.820Z,1.20
2023-04-07T12:50:24.239Z,1.10
2023-04-07T12:52:56.750Z,2.70
2023-04-07T12:55:28.025Z,3.05
2023-04-07T12:57:58.933Z,1.80
2023-04-07T13:00:29.611Z,2.80
2023-04-07T13:02:59.989Z,3.05
2023-04-07T13:05:32.627Z,2.72
2023-04-07T13:08:03.788Z,4.43
2023-04-07T13:10:35.456Z,2.78
2023-04-07T13:13:07.412Z,3.17
2023-04-07T13:15:37.722Z,3.05
2023-04-07T13:18:07.941Z,1.58
2023-04-07T13:20:40.510Z,4.50
2023-04-07T13:23:10.722Z,6.45
2023-04-07T13:25:41.285Z,3.72
2023-04-07T13:28:12.055Z,2.38
2023-04-07T13:30:45.185Z,2.78
2023-04-07T13:33:16.354Z,4.25
2023-04-07T13:35:46.880Z,2.10
2023-04-07T13:38:18.119Z,1.35
2023-04-07T13:40:50.967Z,1.83
2023-04-07T13:43:21.549Z,2.35
2023-04-07T13:45:52.107Z,3.03
2023-04-07T13:48:23.052Z,1.33
2023-04-07T13:50:53.238Z,4.03
2023-04-07T13:53:24.613Z,2.58
2023-04-07T13:55:55.826Z,1.70
2023-04-07T13:58:25.948Z,3.65
2023-04-07T14:00:57.113Z,1.33
2023-04-07T14:03:27.392Z,1.88
2023-04-07T14:06:02.894Z,3.13
2023-04-07T14:08:33.273Z,4.38
2023-04-07T14:11:03.922Z,4.70
2023-04-07T14:13:35.048Z,3.13
2023-04-07T14:16:06.513Z,2.75
2023-04-07T14:18:37.758Z,3.53
2023-04-07T14:21:09.151Z,5.03
2023-04-07T14:23:41.654Z,4.15
2023-04-07T14:26:14.074Z,2.60
2023-04-07T14:28:44.995Z,3.58
2023-04-07T14:31:17.679Z,5.20
2023-04-07T14:33:49.100Z,2.20
2023-04-07T14:36:19.631Z,2.67
2023-04-07T14:38:51.929Z,2.70
2023-04-07T14:41:23.040Z,2.58
2023-04-07T14:43:57.571Z,4.15
2023-04-07T14:46:30.481Z,4.53
2023-04-07T14:49:02.043Z,2.17
2023-04-07T14:51:32.489Z,3.45
2023-04-07T14:54:03.311Z,4.45
2023-04-07T14:56:34.932Z,3.92
2023-04-07T14:59:05.880Z,3.10
2023-04-07T15:01:36.338Z,1.15
2023-04-07T15:04:07.314Z,3.47
2023-04-07T15:06:37.821Z,2.70
2023-04-07T15:09:08.579Z,2.63
2023-04-07T15:14:25.947Z,56.38
2023-04-07T15:16:57.036Z,34.13
2023-04-07T15:19:29.844Z,32.78
2023-04-07T15:22:03.512Z,29.52
2023-04-07T15:24:34.685Z,56.17
2023-04-07T15:27:07.060Z,41.88
2023-04-07T15:29:39.990Z,57.10
2023-04-07T15:32:10.909Z,29.00
2023-04-07T15:34:42.102Z,34.83
2023-04-07T15:37:12.918Z,59.78
2023-04-07T15:39:45.858Z,36.88
2023-04-07T15:42:18.706Z,47.00
2023-04-07T15:44:53.978Z,41.08
2023-04-07T15:47:26.397Z,52.70
2023-04-07T15:49:58.360Z,54.00
2023-04-07T15:52:30.844Z,48.53
2023-04-07T15:55:02.801Z,44.53
2023-04-07T15:57:34.690Z,49.85
2023-04-07T16:00:06.083Z,38.30
2023-04-07T16:02:36.230Z,40.53
2023-04-07T16:05:06.735Z,53.45
2023-04-07T16:07:38.425Z,44.90
2023-04-07T16:10:10.550Z,55.13
2023-04-07T16:12:44.896Z,41.45
2023-04-07T16:15:28.940Z,28.95
2023-04-07T16:18:14.943Z,42.72
2023-04-07T16:20:46.383Z,37.45
2023-04-07T16:23:18.583Z,17.48
2023-04-07T16:25:53.375Z,54.08
2023-04-07T16:28:25.560Z,51.92
2023-04-07T16:30:57.120Z,24.15
2023-04-07T16:33:31.123Z,25.38
2023-04-07T16:36:02.264Z,30.00
2023-04-07T16:38:34.994Z,36.75
2023-04-07T16:41:11.502Z,45.38
2023-04-07T16:43:43.446Z,24.00
2023-04-07T16:46:14.392Z,14.48
2023-04-07T16:48:46.626Z,21.83
2023-04-07T16:51:22.404Z,32.38
2023-04-07T16:53:53.723Z,15.52
2023-04-07T16:56:28.072Z,18.90
2023-04-07T16:58:58.480Z,47.05
2023-04-07T17:01:33.380Z,45.15
2023-04-07T17:06:38.358Z,36.60
2023-04-07T17:09:09.541Z,46.88
2023-04-07T17:11:44.300Z,61.45
2023-04-07T17:14:15.298Z,54.45
2023-04-07T17:16:48.301Z,61.22
2023-04-07T17:19:23.487Z,78.00
2023-04-07T17:21:54.305Z,30.10
2023-04-07T17:24:25.213Z,54.92
2023-04-07T17:26:55.949Z,43.42
2023-04-07T17:29:30.361Z,33.28
2023-04-07T17:32:02.247Z,44.33
2023-04-07T17:34:38.154Z,54.45
2023-04-07T17:37:08.340Z,54.63
2023-04-07T17:39:39.855Z,43.13
2023-04-07T17:42:12.367Z,55.13
2023-04-07T17:44:44.369Z,29.20
2023-04-07T17:47:16.028Z,32.22
2023-04-07T17:49:48.323Z,29.80
2023-04-07T17:52:20.621Z,34.67
2023-04-07T17:54:51.059Z,51.15
2023-04-07T17:57:22.128Z,58.20
2023-04-07T17:59:53.196Z,49.33
2023-04-07T18:02:24.553Z,62.28
2023-04-07T18:04:59.856Z,51.13
2023-04-07T18:07:35.248Z,37.88
2023-04-07T18:10:06.807Z,60.17
2023-04-07T18:12:36.878Z,38.90
2023-04-07T18:15:10.091Z,49.42
2023-04-07T18:17:42.739Z,57.65
2023-04-07T18:20:16.736Z,40.47
2023-04-07T18:22:48.395Z,29.15
2023-04-07T18:25:19.728Z,19.35
2023-04-07T18:27:50.696Z,34.78
2023-04-07T18:30:20.955Z,26.48
2023-04-07T18:32:53.729Z,25.88
2023-04-07T18:35:25.882Z,16.67
2023-04-07T18:37:56.938Z,27.92
2023-04-07T18:40:27.984Z,47.92
2023-04-07T18:43:07.515Z,26.80
2023-04-07T18:45:39.535Z,23.25
2023-04-07T18:48:09.701Z,31.25
2023-04-07T18:50:40.144Z,33.10
2023-04-07T18:53:10.817Z,35.85
2023-04-07T18:55:42.496Z,43.60
2023-04-07T18:58:12.706Z,36.80
2023-04-07T19:00:46.836Z,19.63
2023-04-07T19:03:23.998Z,27.80
2023-04-07T19:06:18.972Z,33.65
2023-04-07T19:08:52.826Z,23.08
2023-04-07T19:11:24.094Z,38.13
2023-04-07T19:13:56.574Z,18.88
2023-04-07T19:16:28.872Z,30.75
2023-04-07T19:19:00.427Z,38.40
2023-04-07T19:21:32.124Z,27.10
2023-04-07T19:24:03.215Z,51.63
2023-04-07T19:26:34.780Z,38.00
2023-04-07T19:29:07.616Z,42.05
2023-04-07T19:31:39.139Z,30.63
2023-04-07T19:34:10.579Z,37.45
2023-04-07T19:36:40.820Z,18.45
2023-04-07T19:39:11.615Z,41.78
2023-04-07T19:41:45.648Z,21.90
2023-04-07T19:44:18.215Z,31.77
2023-04-07T19:46:50.972Z,22.67
2023-04-07T19:49:27.780Z,28.83
2023-04-07T19:51:58.899Z,25.35
2023-04-07T19:54:29.348Z,26.55
2023-04-07T19:57:03.502Z,35.55
2023-04-07T19:59:45.530Z,28.63
2023-04-07T20:02:17.815Z,19.38
2023-04-07T20:04:48.271Z,28.65
2023-04-07T20:07:18.859Z,50.22
2023-04-07T20:09:54.262Z,25.75
2023-04-07T20:12:27.434Z,25.25
2023-04-07T20:15:00.836Z,29.40
2023-04-07T20:17:33.876Z,32.40
2023-04-07T20:20:05.779Z,22.05
2023-04-07T20:22:39.204Z,32.15
2023-04-07T20:25:15.871Z,25.38
2023-04-07T20:27:52.260Z,24.92
2023-04-07T20:30:23.478Z,19.17
2023-04-07T20:32:53.758Z,21.67
2023-04-07T20:35:23.893Z,34.92
2023-04-07T20:37:54.238Z,22.13
2023-04-07T20:40:25.023Z,25.42
2023-04-07T20:42:56.182Z,20.55
2023-04-07T20:45:27.642Z,28.60
2023-04-07T20:47:58.999Z,27.05
2023-04-07T20:50:30.032Z,19.33
2023-04-07T20:53:01.612Z,14.70
2023-04-07T20:55:31.768Z,15.38
2023-04-07T20:58:03.065Z,11.10
2023-04-07T21:00:35.427Z,14.63
2023-04-07T21:03:05.989Z,13.98
2023-04-07T21:05:37.469Z,12.93
2023-04-07T21:08:09.315Z,11.15
2023-04-07T21:10:39.670Z,13.32
2023-04-07T21:13:10.923Z,11.00
2023-04-07T21:15:44.422Z,9.38
2023-04-07T21:18:15.210Z,9.40
2023-04-07T21:20:46.443Z,7.70
2023-04-07T21:23:20.896Z,5.05
2023-04-07T21:25:53.017Z,4.65
2023-04-07T21:28:24.969Z,4.90
2023-04-07T21:30:57.223Z,7.65
2023-04-07T21:33:28.753Z,8.68
2023-04-07T21:36:02.124Z,6.70
2023-04-07T21:38:33.602Z,3.70
2023-04-07T21:41:04.116Z,5.30
2023-04-07T21:43:35.671Z,4.05
2023-04-07T21:46:07.162Z,3.05
2023-04-07T21:48:37.427Z,3.33
2023-04-07T21:51:10.162Z,2.67
2023-04-07T21:53:40.685Z,3.45
2023-04-07T21:56:12.462Z,2.95
2023-04-07T21:58:45.682Z,3.47
2023-04-07T22:01:18.050Z,1.73
2023-04-07T22:03:48.325Z,4.53
2023-04-07T22:06:18.515Z,5.47
2023-04-07T22:11:25.191Z,4.18
2023-04-07T22:13:55.923Z,3.85
2023-04-07T22:16:30.274Z,6.30
2023-04-07T22:19:03.124Z,3.55
2023-04-07T22:21:34.676Z,5.10
2023-04-07T22:24:06.399Z,2.05
2023-04-07T22:26:38.212Z,31.85
2023-04-07T22:29:15.815Z,28.65
2023-04-07T22:31:48.715Z,22.42
2023-04-07T22:34:21.592Z,19.50
2023-04-07T22:36:53.971Z,22.60
2023-04-07T22:39:25.960Z,16.05
2023-04-07T22:41:56.676Z,13.43
2023-04-07T22:44:27.416Z,10.23
2023-04-07T22:46:59.499Z,8.18
2023-04-07T22:49:31.057Z,10.82
2023-04-07T22:52:03.108Z,10.35
2023-04-07T22:54:36.236Z,9.30
2023-04-07T22:57:07.107Z,8.90
2023-04-07T22:59:53.013Z,6.75
2023-04-07T23:02:23.433Z,7.65
2023-04-07T23:04:54.416Z,10.65
2023-04-07T23:07:25.612Z,9.25
2023-04-07T23:09:58.653Z,5.97
2023-04-07T23:12:33.456Z,10.60
2023-04-07T23:15:03.689Z,4.43
2023-04-07T23:17:34.580Z,4.82
2023-04-07T23:20:04.972Z,3.08
2023-04-07T23:22:37.252Z,5.10
2023-04-07T23:25:08.674Z,1.05
2023-04-07T23:27:43.083Z,2.58
2023-04-07T23:30:16.050Z,1.50
2023-04-07T23:32:47.639Z,2.42
2023-04-07T23:35:19.755Z,2.92
2023-04-07T23:37:50.718Z,1.88
2023-04-07T23:40:25.150Z,2.63
2023-04-07T23:42:56.944Z,4.05
2023-04-07T23:45:27.135Z,4.82
2023-04-07T23:47:58.748Z,6.63
2023-04-07T23:50:29.249Z,2.17
2023-04-07T23:53:00.608Z,3.35
2023-04-07T23:55:31.059Z,2.50
2023-04-07T23:58:01.868Z,4.13
